createdAt,value
2022-10-19T00:01:25.392Z,16.90
2022-10-19T00:03:59.081Z,16.80
2022-10-19T00:06:28.188Z,16.80
2022-10-19T00:09:02.285Z,16.80
2022-10-19T00:11:30.202Z,16.90
2022-10-19T00:13:58.511Z,16.80
2022-10-19T00:16:29.208Z,16.80
2022-10-19T00:19:01.673Z,16.80
2022-10-19T00:21:31.555Z,16.80
2022-10-19T00:24:01.526Z,16.80
2022-10-19T00:26:30.904Z,16.80
2022-10-19T00:28:58.333Z,16.80
2022-10-19T00:31:28.067Z,16.80
2022-10-19T00:34:00.016Z,16.80
2022-10-19T00:36:37.324Z,16.80
2022-10-19T00:39:07.089Z,16.80
2022-10-19T00:41:37.090Z,16.80
2022-10-19T00:44:15.882Z,16.80
2022-10-19T00:46:49.989Z,16.70
2022-10-19T00:49:23.721Z,16.70
2022-10-19T00:52:07.487Z,16.70
2022-10-19T00:54:40.634Z,16.70
2022-10-19T00:57:11.192Z,16.70
2022-10-19T00:59:42.761Z,16.70
2022-10-19T01:02:10.154Z,16.70
2022-10-19T01:04:43.029Z,16.70
2022-10-19T01:07:12.898Z,16.70
2022-10-19T01:09:42.774Z,16.70
2022-10-19T01:12:22.704Z,16.70
2022-10-19T01:15:36.933Z,16.60
2022-10-19T01:18:16.562Z,16.70
2022-10-19T01:21:43.973Z,16.60
2022-10-19T01:24:57.850Z,16.60
2022-10-19T01:27:53.665Z,16.50
2022-10-19T01:30:40.147Z,16.60
2022-10-19T01:33:28.094Z,16.60
2022-10-19T01:36:38.975Z,16.60
2022-10-19T01:39:33.291Z,16.50
2022-10-19T01:42:16.572Z,16.60
2022-10-19T01:44:54.470Z,16.60
2022-10-19T01:47:31.723Z,16.60
2022-10-19T01:50:22.786Z,16.60
2022-10-19T01:52:54.061Z,16.60
2022-10-19T01:55:27.749Z,16.60
2022-10-19T01:58:02.732Z,16.60
2022-10-19T02:00:32.537Z,16.70
2022-10-19T02:03:00.940Z,16.70
2022-10-19T02:05:35.002Z,16.70
2022-10-19T02:08:11.543Z,16.70
2022-10-19T02:10:40.219Z,16.70
2022-10-19T02:13:12.228Z,16.80
2022-10-19T02:15:48.318Z,16.80
2022-10-19T02:18:21.297Z,16.80
2022-10-19T02:20:50.770Z,16.80
2022-10-19T02:23:24.536Z,16.80
2022-10-19T02:25:54.549Z,16.80
2022-10-19T02:30:52.810Z,16.80
2022-10-19T02:33:19.686Z,16.80
2022-10-19T02:35:51.634Z,16.80
2022-10-19T02:38:22.237Z,16.90
2022-10-19T02:41:24.508Z,16.90
2022-10-19T02:44:02.594Z,16.80
2022-10-19T02:46:37.907Z,16.90
2022-10-19T02:49:07.182Z,16.90
2022-10-19T02:51:57.781Z,16.90
2022-10-19T02:54:32.479Z,16.90
2022-10-19T02:56:59.394Z,16.90
2022-10-19T02:59:26.527Z,16.90
2022-10-19T03:01:58.342Z,16.90
2022-10-19T03:04:27.714Z,16.90
2022-10-19T03:06:57.048Z,17.00
2022-10-19T03:09:23.886Z,17.00
2022-10-19T03:11:50.750Z,17.00
2022-10-19T03:14:17.784Z,17.00
2022-10-19T03:16:47.300Z,17.00
2022-10-19T03:19:16.839Z,17.00
2022-10-19T03:21:43.707Z,17.00
2022-10-19T03:24:10.619Z,17.00
2022-10-19T03:26:37.447Z,17.10
2022-10-19T03:29:07.037Z,17.10
2022-10-19T03:31:33.914Z,17.10
2022-10-19T03:34:02.026Z,17.20
2022-10-19T03:36:35.620Z,17.20
2022-10-19T03:39:07.594Z,17.10
2022-10-19T03:41:36.574Z,17.20
2022-10-19T03:44:06.779Z,17.20
2022-10-19T03:46:34.217Z,17.20
2022-10-19T03:49:01.502Z,17.20
2022-10-19T03:51:32.983Z,17.30
2022-10-19T03:54:07.735Z,17.30
2022-10-19T03:56:37.098Z,17.10
2022-10-19T03:59:10.496Z,17.30
2022-10-19T04:01:44.459Z,17.30
2022-10-19T04:04:19.944Z,17.30
2022-10-19T04:06:53.222Z,17.30
2022-10-19T04:09:22.236Z,17.30
2022-10-19T04:11:49.938Z,17.30
2022-10-19T04:14:32.122Z,17.30
2022-10-19T04:17:04.330Z,17.40
2022-10-19T04:19:31.813Z,17.40
2022-10-19T04:22:08.064Z,17.40
2022-10-19T04:24:34.938Z,17.40
2022-10-19T04:27:02.017Z,17.40
2022-10-19T04:29:30.203Z,17.50
2022-10-19T04:32:00.466Z,17.50
2022-10-19T04:34:27.462Z,17.50
2022-10-19T04:36:54.604Z,17.60
2022-10-19T04:39:21.596Z,17.60
2022-10-19T04:41:57.006Z,17.60
2022-10-19T04:44:27.217Z,17.60
2022-10-19T04:47:37.787Z,17.60
2022-10-19T04:50:05.302Z,17.60
2022-10-19T04:52:41.040Z,17.70
2022-10-19T04:55:08.528Z,17.70
2022-10-19T04:57:59.891Z,17.70
2022-10-19T05:00:28.951Z,17.70
2022-10-19T05:03:03.533Z,17.80
2022-10-19T05:05:34.469Z,17.80
2022-10-19T05:08:04.151Z,17.80
2022-10-19T05:10:31.359Z,17.80
2022-10-19T05:13:02.661Z,17.90
2022-10-19T05:15:30.553Z,17.90
2022-10-19T05:18:00.583Z,17.90
2022-10-19T05:20:35.314Z,17.90
2022-10-19T05:23:13.637Z,17.90
2022-10-19T05:25:40.488Z,17.90
2022-10-19T05:28:14.113Z,18.00
2022-10-19T05:30:53.104Z,18.00
2022-10-19T05:33:25.033Z,18.00
2022-10-19T05:35:54.385Z,18.00
2022-10-19T05:38:23.856Z,18.00
2022-10-19T05:40:53.612Z,18.00
2022-10-19T05:43:20.776Z,18.10
2022-10-19T05:45:47.572Z,18.10
2022-10-19T05:48:14.469Z,18.10
2022-10-19T05:50:41.362Z,18.10
2022-10-19T05:53:08.285Z,18.10
2022-10-19T05:55:37.783Z,18.10
2022-10-19T05:58:04.851Z,18.10
2022-10-19T06:00:31.712Z,18.20
2022-10-19T06:02:59.259Z,18.20
2022-10-19T06:05:31.675Z,18.20
2022-10-19T06:07:58.532Z,18.20
2022-10-19T06:10:25.621Z,18.20
2022-10-19T06:12:55.031Z,18.20
2022-10-19T06:15:21.850Z,18.20
2022-10-19T06:17:48.711Z,18.20
2022-10-19T06:20:15.596Z,18.20
2022-10-19T06:22:42.779Z,18.20
2022-10-19T06:25:09.937Z,18.20
2022-10-19T06:27:37.358Z,18.20
2022-10-19T06:30:05.440Z,18.20
2022-10-19T06:32:36.993Z,18.30
2022-10-19T06:35:03.944Z,18.20
2022-10-19T06:37:30.909Z,18.00
2022-10-19T06:39:57.940Z,18.20
2022-10-19T06:42:24.775Z,18.20
2022-10-19T06:44:53.838Z,18.20
2022-10-19T06:47:22.840Z,18.20
2022-10-19T06:49:49.667Z,18.30
2022-10-19T06:52:16.511Z,18.20
2022-10-19T06:54:45.712Z,18.30
2022-10-19T06:57:12.596Z,18.30
2022-10-19T06:59:39.512Z,18.30
2022-10-19T07:02:06.674Z,18.30
2022-10-19T07:04:33.578Z,18.30
2022-10-19T07:07:00.486Z,18.30
2022-10-19T07:09:29.950Z,18.30
2022-10-19T07:11:56.897Z,18.30
2022-10-19T07:14:28.443Z,18.30
2022-10-19T07:16:55.665Z,18.30
2022-10-19T07:19:26.446Z,18.10
2022-10-19T07:21:55.958Z,18.30
2022-10-19T07:24:23.370Z,18.30
2022-10-19T07:26:50.215Z,18.40
2022-10-19T07:29:17.366Z,18.40
2022-10-19T07:31:44.295Z,18.40
2022-10-19T07:34:17.744Z,18.40
2022-10-19T07:36:48.037Z,18.40
2022-10-19T07:39:19.542Z,18.40
2022-10-19T07:41:49.100Z,18.40
2022-10-19T07:44:16.238Z,18.20
2022-10-19T07:46:44.009Z,18.40
2022-10-19T07:49:16.367Z,18.40
2022-10-19T07:51:43.372Z,18.50
2022-10-19T07:54:13.097Z,18.40
2022-10-19T07:56:42.491Z,18.40
2022-10-19T07:59:10.319Z,18.50
2022-10-19T08:01:44.877Z,18.50
2022-10-19T08:04:56.022Z,18.50
2022-10-19T08:07:03.150Z,18.50
2022-10-19T08:09:53.193Z,18.50
2022-10-19T08:12:19.344Z,18.50
2022-10-19T08:14:47.970Z,18.60
2022-10-19T08:17:17.465Z,18.60
2022-10-19T08:19:47.282Z,18.60
2022-10-19T08:22:16.702Z,18.60
2022-10-19T08:24:43.768Z,18.60
2022-10-19T08:27:15.077Z,18.60
2022-10-19T08:29:41.964Z,18.60
2022-10-19T08:32:08.943Z,18.70
2022-10-19T08:34:42.566Z,18.70
2022-10-19T08:37:19.916Z,18.70
2022-10-19T08:39:58.678Z,18.70
2022-10-19T08:42:47.779Z,18.70
2022-10-19T08:48:23.170Z,18.80
2022-10-19T08:50:53.279Z,18.80
2022-10-19T08:53:54.941Z,18.60
2022-10-19T08:56:51.502Z,18.70
2022-10-19T08:59:35.197Z,18.80
2022-10-19T09:02:20.434Z,18.80
2022-10-19T09:05:06.110Z,18.80
2022-10-19T09:07:45.485Z,18.90
2022-10-19T09:10:17.923Z,18.90
2022-10-19T09:12:55.098Z,19.00
2022-10-19T09:15:41.825Z,19.00
2022-10-19T09:18:30.691Z,19.00
2022-10-19T09:21:16.787Z,19.10
2022-10-19T09:24:09.216Z,19.10
2022-10-19T09:26:53.353Z,19.10
2022-10-19T09:30:05.538Z,19.20
2022-10-19T09:32:37.458Z,19.20
2022-10-19T09:35:23.390Z,19.30
2022-10-19T09:37:54.121Z,19.30
2022-10-19T09:40:29.069Z,19.40
2022-10-19T09:43:02.695Z,19.40
2022-10-19T09:46:18.581Z,19.40
2022-10-19T09:48:52.364Z,19.50
2022-10-19T09:51:21.186Z,19.50
2022-10-19T09:53:53.577Z,19.60
2022-10-19T09:56:24.338Z,19.60
2022-10-19T09:59:00.097Z,19.70
2022-10-19T10:01:41.556Z,19.70
2022-10-19T10:04:17.221Z,19.80
2022-10-19T10:06:48.119Z,19.90
2022-10-19T10:09:24.024Z,20.00
2022-10-19T10:14:40.254Z,20.20
2022-10-19T10:17:12.450Z,20.20
2022-10-19T10:19:58.122Z,20.30
2022-10-19T10:23:03.325Z,20.40
2022-10-19T10:25:34.556Z,20.40
2022-10-19T10:28:18.598Z,20.60
2022-10-19T10:30:51.058Z,20.60
2022-10-19T10:33:40.337Z,20.70
2022-10-19T10:36:12.643Z,20.80
2022-10-19T10:38:56.741Z,20.90
2022-10-19T10:41:40.517Z,20.90
2022-10-19T10:44:29.794Z,21.00
2022-10-19T10:47:02.855Z,21.00
2022-10-19T10:49:36.945Z,21.00
2022-10-19T10:52:16.456Z,21.00
2022-10-19T10:55:12.397Z,21.00
2022-10-19T10:57:45.760Z,21.00
2022-10-19T11:00:26.621Z,21.00
2022-10-19T11:03:29.129Z,21.00
2022-10-19T11:06:05.584Z,21.00
2022-10-19T11:08:52.445Z,21.00
2022-10-19T11:11:32.397Z,21.00
2022-10-19T11:14:22.791Z,21.00
2022-10-19T11:16:54.090Z,21.00
2022-10-19T11:19:43.060Z,21.00
2022-10-19T11:22:34.999Z,20.80
2022-10-19T11:25:19.370Z,21.00
2022-10-19T11:28:27.444Z,21.00
2022-10-19T11:30:59.955Z,21.10
2022-10-19T11:33:50.801Z,21.10
2022-10-19T11:36:47.069Z,21.20
2022-10-19T11:39:28.791Z,21.20
2022-10-19T11:42:16.220Z,21.20
2022-10-19T11:45:18.458Z,21.30
2022-10-19T11:48:12.995Z,21.20
2022-10-19T11:51:16.816Z,21.20
2022-10-19T11:54:18.002Z,21.20
2022-10-19T11:57:11.159Z,21.20
2022-10-19T12:00:13.726Z,21.10
2022-10-19T12:03:18.844Z,21.20
2022-10-19T12:06:09.119Z,21.20
2022-10-19T12:09:13.562Z,21.30
2022-10-19T12:12:30.981Z,21.30
2022-10-19T12:15:31.582Z,21.30
2022-10-19T12:18:14.491Z,21.30
2022-10-19T12:20:57.255Z,21.40
2022-10-19T12:23:48.244Z,21.40
2022-10-19T12:26:21.344Z,21.40
2022-10-19T12:28:55.684Z,21.50
2022-10-19T12:31:27.510Z,21.50
2022-10-19T12:34:38.020Z,21.60
2022-10-19T12:37:26.227Z,21.60
2022-10-19T12:40:40.201Z,21.60
2022-10-19T12:43:10.105Z,21.60
2022-10-19T12:45:41.867Z,21.60
2022-10-19T12:48:08.694Z,21.60
2022-10-19T12:50:52.781Z,21.60
2022-10-19T12:53:38.837Z,21.60
2022-10-19T12:56:14.697Z,21.60
2022-10-19T12:58:46.769Z,21.60
2022-10-19T13:01:43.942Z,21.70
2022-10-19T13:04:20.289Z,21.60
2022-10-19T13:06:59.182Z,21.70
2022-10-19T13:09:44.825Z,21.70
2022-10-19T13:12:17.821Z,21.70
2022-10-19T13:15:07.004Z,21.70
2022-10-19T13:17:46.516Z,21.70
2022-10-19T13:20:16.484Z,21.70
2022-10-19T13:23:01.367Z,21.70
2022-10-19T13:25:33.468Z,21.70
2022-10-19T13:28:17.911Z,21.60
2022-10-19T13:30:44.681Z,21.60
2022-10-19T13:33:29.195Z,21.60
2022-10-19T13:36:06.498Z,21.50
2022-10-19T13:39:07.774Z,21.50
2022-10-19T13:41:34.593Z,21.40
2022-10-19T13:44:22.172Z,21.40
2022-10-19T13:47:09.333Z,21.30
2022-10-19T13:49:56.566Z,21.30
2022-10-19T13:52:26.135Z,21.20
2022-10-19T13:55:11.625Z,21.20
2022-10-19T13:58:07.117Z,21.10
2022-10-19T14:01:22.090Z,21.00
2022-10-19T14:04:21.383Z,21.00
2022-10-19T14:06:59.123Z,20.80
2022-10-19T14:09:46.235Z,20.80
2022-10-19T14:12:38.912Z,20.80
2022-10-19T14:15:18.783Z,20.70
2022-10-19T14:17:48.348Z,20.70
2022-10-19T14:20:31.241Z,20.70
2022-10-19T14:23:18.131Z,20.60
2022-10-19T14:26:10.594Z,20.60
2022-10-19T14:28:38.747Z,20.50
2022-10-19T14:31:20.640Z,20.50
2022-10-19T14:33:54.241Z,20.40
2022-10-19T14:36:30.031Z,20.40
2022-10-19T14:38:57.667Z,20.40
2022-10-19T14:41:27.589Z,20.30
2022-10-19T14:43:56.636Z,20.30
2022-10-19T14:46:33.183Z,20.30
2022-10-19T14:49:05.927Z,20.20
2022-10-19T14:52:01.274Z,20.20
2022-10-19T14:54:37.233Z,20.10
2022-10-19T14:57:16.902Z,20.10
2022-10-19T14:59:46.506Z,20.10
2022-10-19T15:02:27.373Z,20.10
2022-10-19T15:04:57.501Z,20.00
2022-10-19T15:07:41.107Z,20.00
2022-10-19T15:10:35.596Z,20.00
2022-10-19T15:13:06.868Z,19.90
2022-10-19T15:15:38.969Z,19.90
2022-10-19T15:18:25.157Z,19.90
2022-10-19T15:21:18.012Z,19.90
2022-10-19T15:23:49.299Z,19.90
2022-10-19T15:26:25.289Z,19.90
2022-10-19T15:28:54.453Z,19.90
2022-10-19T15:31:26.382Z,19.90
2022-10-19T15:33:59.560Z,19.90
2022-10-19T15:36:28.550Z,19.90
2022-10-19T15:39:06.250Z,19.90
2022-10-19T15:41:47.597Z,19.90
2022-10-19T15:44:44.543Z,19.90
2022-10-19T15:47:19.125Z,19.80
2022-10-19T15:49:51.639Z,19.80
2022-10-19T15:52:22.355Z,19.80
2022-10-19T15:54:51.192Z,19.80
2022-10-19T15:57:35.462Z,19.80
2022-10-19T16:00:16.232Z,19.70
2022-10-19T16:02:43.366Z,19.80
2022-10-19T16:05:10.917Z,19.80
2022-10-19T16:07:42.076Z,19.80
2022-10-19T16:10:17.633Z,19.80
2022-10-19T16:12:44.601Z,19.70
2022-10-19T16:15:23.315Z,19.70
2022-10-19T16:17:58.777Z,19.70
2022-10-19T16:20:28.785Z,19.70
2022-10-19T16:22:55.798Z,19.70
2022-10-19T16:25:23.207Z,19.70
2022-10-19T16:27:50.186Z,19.70
2022-10-19T16:30:19.333Z,19.60
2022-10-19T16:32:49.218Z,19.60
2022-10-19T16:35:16.914Z,19.60
2022-10-19T16:37:43.880Z,19.60
2022-10-19T16:40:11.200Z,19.60
2022-10-19T16:42:40.471Z,19.60
2022-10-19T16:45:09.641Z,19.50
2022-10-19T16:47:36.582Z,19.50
2022-10-19T16:50:06.036Z,19.50
2022-10-19T16:52:33.598Z,19.50
2022-10-19T16:55:01.090Z,19.50
2022-10-19T16:57:30.545Z,19.50
2022-10-19T16:59:59.673Z,19.50
2022-10-19T17:02:29.901Z,19.50
2022-10-19T17:04:56.812Z,19.50
2022-10-19T17:07:24.410Z,19.50
2022-10-19T17:09:55.066Z,19.40
2022-10-19T17:12:24.325Z,19.50
2022-10-19T17:14:51.377Z,19.40
2022-10-19T17:17:18.409Z,19.50
2022-10-19T17:19:48.719Z,19.40
2022-10-19T17:22:15.654Z,19.40
2022-10-19T17:24:42.557Z,19.40
2022-10-19T17:27:13.974Z,19.40
2022-10-19T17:29:40.805Z,19.40
2022-10-19T17:32:10.048Z,19.20
2022-10-19T17:34:37.113Z,19.30
2022-10-19T17:37:06.567Z,19.30
2022-10-19T17:39:35.608Z,19.30
2022-10-19T17:42:04.601Z,19.30
2022-10-19T17:44:31.914Z,19.30
2022-10-19T17:47:00.701Z,19.30
2022-10-19T17:49:30.727Z,19.30
2022-10-19T17:51:58.216Z,19.30
2022-10-19T17:54:25.498Z,19.30
2022-10-19T17:56:52.427Z,19.30
2022-10-19T17:59:30.156Z,19.30
2022-10-19T18:02:03.745Z,19.20
2022-10-19T18:04:30.666Z,19.20
2022-10-19T18:06:57.848Z,19.20
2022-10-19T18:09:24.676Z,19.20
2022-10-19T18:11:51.733Z,19.20
2022-10-19T18:14:18.665Z,19.20
2022-10-19T18:16:52.055Z,19.20
2022-10-19T18:19:19.188Z,19.20
2022-10-19T18:21:47.776Z,19.20
2022-10-19T18:24:19.838Z,19.10
2022-10-19T18:26:50.847Z,19.10
2022-10-19T18:29:27.543Z,19.10
2022-10-19T18:31:59.303Z,19.10
2022-10-19T18:34:28.919Z,19.10
2022-10-19T18:36:55.915Z,19.10
2022-10-19T18:39:28.277Z,19.10
2022-10-19T18:41:55.327Z,19.10
2022-10-19T18:44:26.417Z,19.10
2022-10-19T18:46:56.546Z,19.10
2022-10-19T18:49:24.196Z,19.00
2022-10-19T18:52:00.665Z,19.00
2022-10-19T18:54:28.087Z,19.00
2022-10-19T18:56:55.839Z,19.00
2022-10-19T18:59:24.970Z,19.00
2022-10-19T19:01:52.171Z,19.00
2022-10-19T19:04:21.557Z,19.00
2022-10-19T19:06:53.266Z,19.00
2022-10-19T19:09:21.160Z,19.00
2022-10-19T19:11:48.337Z,18.90
2022-10-19T19:14:20.889Z,18.90
2022-10-19T19:16:47.925Z,18.90
2022-10-19T19:19:17.315Z,18.90
2022-10-19T19:21:45.522Z,18.90
2022-10-19T19:24:16.159Z,18.90
2022-10-19T19:26:50.127Z,18.90
2022-10-19T19:29:21.213Z,18.90
2022-10-19T19:31:51.360Z,18.90
2022-10-19T19:34:21.920Z,18.90
2022-10-19T19:36:49.210Z,18.90
2022-10-19T19:39:19.924Z,18.80
2022-10-19T19:41:48.607Z,18.90
2022-10-19T19:44:18.264Z,18.80
2022-10-19T19:46:45.232Z,18.90
2022-10-19T19:49:12.480Z,18.80
2022-10-19T19:51:39.503Z,18.80
2022-10-19T19:54:11.610Z,18.80
2022-10-19T19:56:42.792Z,18.80
2022-10-19T19:59:12.639Z,18.80
2022-10-19T20:01:42.854Z,18.80
2022-10-19T20:04:12.597Z,18.80
2022-10-19T20:06:40.723Z,18.80
2022-10-19T20:09:08.681Z,18.80
2022-10-19T20:11:42.063Z,18.80
2022-10-19T20:14:12.410Z,18.70
2022-10-19T20:16:41.556Z,18.70
2022-10-19T20:19:11.718Z,18.70
2022-10-19T20:21:39.740Z,18.70
2022-10-19T20:24:07.244Z,18.70
2022-10-19T20:26:36.653Z,18.70
2022-10-19T20:29:04.570Z,18.70
2022-10-19T20:31:39.356Z,18.70
2022-10-19T20:34:14.047Z,18.70
2022-10-19T20:36:41.404Z,18.70
2022-10-19T20:39:08.918Z,18.70
2022-10-19T20:41:36.097Z,18.70
2022-10-19T20:44:03.095Z,18.60
2022-10-19T20:46:31.390Z,18.60
2022-10-19T20:49:01.028Z,18.60
2022-10-19T20:51:32.533Z,18.60
2022-10-19T20:54:02.789Z,18.60
2022-10-19T20:56:38.090Z,18.60
2022-10-19T20:59:16.572Z,18.60
2022-10-19T21:01:46.138Z,18.60
2022-10-19T21:04:18.379Z,18.60
2022-10-19T21:06:48.479Z,18.60
2022-10-19T21:09:21.161Z,18.60
2022-10-19T21:11:52.938Z,18.60
2022-10-19T21:14:28.570Z,18.60
2022-10-19T21:17:02.094Z,18.60
2022-10-19T21:19:38.616Z,18.60
2022-10-19T21:22:08.510Z,18.60
2022-10-19T21:24:36.538Z,18.60
2022-10-19T21:27:07.619Z,18.60
2022-10-19T21:29:35.900Z,18.60
2022-10-19T21:32:03.032Z,18.60
2022-10-19T21:34:32.671Z,18.60
2022-10-19T21:36:59.712Z,18.60
2022-10-19T21:39:26.756Z,18.60
2022-10-19T21:41:53.658Z,18.60
2022-10-19T21:44:23.003Z,18.60
2022-10-19T21:46:50.325Z,18.60
2022-10-19T21:49:17.452Z,18.60
2022-10-19T21:51:56.376Z,18.60
2022-10-19T21:54:25.300Z,18.60
2022-10-19T21:56:53.166Z,18.60
2022-10-19T21:59:20.117Z,18.60
2022-10-19T22:01:50.200Z,18.60
2022-10-19T22:04:20.694Z,18.60
2022-10-19T22:06:47.831Z,18.60
2022-10-19T22:09:19.961Z,18.60
2022-10-19T22:11:52.884Z,18.60
2022-10-19T22:14:23.140Z,18.60
2022-10-19T22:16:50.034Z,18.60
2022-10-19T22:19:22.277Z,18.60
2022-10-19T22:21:49.139Z,18.60
2022-10-19T22:24:16.293Z,18.60
2022-10-19T22:26:47.489Z,18.60
2022-10-19T22:29:14.520Z,18.60
2022-10-19T22:31:41.797Z,18.60
2022-10-19T22:34:14.848Z,18.60
2022-10-19T22:36:44.307Z,18.60
2022-10-19T22:39:14.159Z,18.60
2022-10-19T22:41:41.051Z,18.60
2022-10-19T22:44:08.421Z,18.60
2022-10-19T22:46:35.289Z,18.60
2022-10-19T22:51:40.783Z,18.60
2022-10-19T22:54:07.661Z,18.60
2022-10-19T22:56:34.842Z,18.60
2022-10-19T22:59:06.202Z,18.50
2022-10-19T23:01:36.075Z,18.60
2022-10-19T23:04:05.550Z,18.50
2022-10-19T23:06:39.546Z,18.50
2022-10-19T23:09:06.678Z,18.50
2022-10-19T23:11:36.592Z,18.50
2022-10-19T23:14:03.543Z,18.50
2022-10-19T23:16:35.488Z,18.50
2022-10-19T23:19:02.308Z,18.50
2022-10-19T23:21:29.188Z,18.50
2022-10-19T23:23:56.136Z,18.50
2022-10-19T23:26:27.569Z,18.50
2022-10-19T23:28:54.402Z,18.50
2022-10-19T23:31:26.795Z,18.50
2022-10-19T23:33:54.417Z,18.50
2022-10-19T23:36:27.689Z,18.40
2022-10-19T23:38:56.260Z,18.50
2022-10-19T23:41:23.575Z,18.50
2022-10-19T23:43:55.283Z,18.40
2022-10-19T23:46:22.133Z,18.50
2022-10-19T23:48:48.973Z,18.40
2022-10-19T23:51:21.249Z,18.50
2022-10-19T23:53:50.032Z,18.50
2022-10-19T23:56:26.916Z,18.40
2022-10-19T23:58:54.711Z,18.40
